sensor_id;sensor_type;location;lat;lon;timestamp;P1;durP1;ratioP1;P2;durP2;ratioP2
71622;SDS011;59473;53.214;5.728;2023-04-06T00:00:32;11.70;;;8.90;;
71622;SDS011;59473;53.214;5.728;2023-04-06T00:02:57;12.60;;;8.57;;
71622;SDS011;59473;53.214;5.728;2023-04-06T00:05:22;11.97;;;8.10;;
71622;SDS011;59473;53.214;5.728;2023-04-06T00:07:48;13.17;;;8.63;;
71622;SDS011;59473;53.214;5.728;2023-04-06T00:10:13;11.77;;;8.67;;
71622;SDS011;59473;53.214;5.728;2023-04-06T00:12:38;13.83;;;7.73;;
71622;SDS011;59473;53.214;5.728;2023-04-06T00:15:04;14.10;;;8.53;;
71622;SDS011;59473;53.214;5.728;2023-04-06T00:17:30;10.20;;;7.90;;
71622;SDS011;59473;53.214;5.728;2023-04-06T00:19:55;14.40;;;8.90;;
71622;SDS011;59473;53.214;5.728;2023-04-06T00:22:21;13.00;;;8.20;;
71622;SDS011;59473;53.214;5.728;2023-04-06T00:24:46;14.63;;;9.37;;
71622;SDS011;59473;53.214;5.728;2023-04-06T00:27:12;10.67;;;8.43;;
71622;SDS011;59473;53.214;5.728;2023-04-06T00:29:37;14.68;;;8.63;;
71622;SDS011;59473;53.214;5.728;2023-04-06T00:32:03;11.48;;;7.90;;
71622;SDS011;59473;53.214;5.728;2023-04-06T00:34:28;13.13;;;9.00;;
71622;SDS011;59473;53.214;5.728;2023-04-06T00:36:54;13.20;;;8.67;;
71622;SDS011;59473;53.214;5.728;2023-04-06T00:39:19;10.43;;;7.97;;
71622;SDS011;59473;53.214;5.728;2023-04-06T00:41:45;12.98;;;8.65;;
71622;SDS011;59473;53.214;5.728;2023-04-06T00:44:11;14.00;;;9.15;;
71622;SDS011;59473;53.214;5.728;2023-04-06T00:46:36;12.03;;;9.00;;
71622;SDS011;59473;53.214;5.728;2023-04-06T00:49:02;12.87;;;8.70;;
71622;SDS011;59473;53.214;5.728;2023-04-06T00:51:27;13.70;;;7.97;;
71622;SDS011;59473;53.214;5.728;2023-04-06T00:53:52;12.48;;;8.13;;
71622;SDS011;59473;53.214;5.728;2023-04-06T00:56:17;10.73;;;7.80;;
71622;SDS011;59473;53.214;5.728;2023-04-06T00:58:43;12.37;;;7.50;;
71622;SDS011;59473;53.214;5.728;2023-04-06T01:01:08;12.00;;;8.40;;
71622;SDS011;59473;53.214;5.728;2023-04-06T01:03:33;11.40;;;8.97;;
71622;SDS011;59473;53.214;5.728;2023-04-06T01:05:59;13.40;;;8.50;;
71622;SDS011;59473;53.214;5.728;2023-04-06T01:08:24;13.73;;;8.70;;
71622;SDS011;59473;53.214;5.728;2023-04-06T01:10:50;11.23;;;8.53;;
71622;SDS011;59473;53.214;5.728;2023-04-06T01:13:15;13.13;;;8.33;;
71622;SDS011;59473;53.214;5.728;2023-04-06T01:15:40;10.83;;;8.20;;
71622;SDS011;59473;53.214;5.728;2023-04-06T01:18:07;12.20;;;8.98;;
71622;SDS011;59473;53.214;5.728;2023-04-06T01:20:33;11.13;;;9.20;;
71622;SDS011;59473;53.214;5.728;2023-04-06T01:22:59;12.60;;;8.73;;
71622;SDS011;59473;53.214;5.728;2023-04-06T01:25:24;12.17;;;8.50;;
71622;SDS011;59473;53.214;5.728;2023-04-06T01:27:50;11.85;;;8.32;;
71622;SDS011;59473;53.214;5.728;2023-04-06T01:30:15;11.13;;;9.00;;
71622;SDS011;59473;53.214;5.728;2023-04-06T01:32:42;13.48;;;8.88;;
71622;SDS011;59473;53.214;5.728;2023-04-06T01:35:07;12.63;;;9.32;;
71622;SDS011;59473;53.214;5.728;2023-04-06T01:37:33;12.93;;;8.33;;
71622;SDS011;59473;53.214;5.728;2023-04-06T01:39:58;11.87;;;8.33;;
71622;SDS011;59473;53.214;5.728;2023-04-06T01:42:24;11.73;;;9.43;;
71622;SDS011;59473;53.214;5.728;2023-04-06T01:44:49;11.80;;;9.10;;
71622;SDS011;59473;53.214;5.728;2023-04-06T01:47:14;10.57;;;8.73;;
71622;SDS011;59473;53.214;5.728;2023-04-06T01:49:39;12.73;;;8.47;;
71622;SDS011;59473;53.214;5.728;2023-04-06T01:52:04;11.87;;;8.87;;
71622;SDS011;59473;53.214;5.728;2023-04-06T01:54:30;11.40;;;8.95;;
71622;SDS011;59473;53.214;5.728;2023-04-06T01:56:55;10.37;;;8.10;;
71622;SDS011;59473;53.214;5.728;2023-04-06T01:59:21;11.33;;;7.97;;
71622;SDS011;59473;53.214;5.728;2023-04-06T02:01:46;12.70;;;7.90;;
71622;SDS011;59473;53.214;5.728;2023-04-06T02:04:11;10.83;;;8.47;;
71622;SDS011;59473;53.214;5.728;2023-04-06T02:06:38;12.63;;;8.53;;
71622;SDS011;59473;53.214;5.728;2023-04-06T02:09:03;13.88;;;8.85;;
71622;SDS011;59473;53.214;5.728;2023-04-06T02:11:29;12.32;;;8.77;;
71622;SDS011;59473;53.214;5.728;2023-04-06T02:13:55;13.45;;;8.13;;
71622;SDS011;59473;53.214;5.728;2023-04-06T02:16:20;10.23;;;8.07;;
71622;SDS011;59473;53.214;5.728;2023-04-06T02:18:46;9.77;;;7.43;;
71622;SDS011;59473;53.214;5.728;2023-04-06T02:21:11;10.87;;;7.77;;
71622;SDS011;59473;53.214;5.728;2023-04-06T02:23:37;10.43;;;8.27;;
71622;SDS011;59473;53.214;5.728;2023-04-06T02:26:02;11.53;;;9.20;;
71622;SDS011;59473;53.214;5.728;2023-04-06T02:28:28;11.77;;;8.47;;
71622;SDS011;59473;53.214;5.728;2023-04-06T02:30:53;10.90;;;8.73;;
71622;SDS011;59473;53.214;5.728;2023-04-06T02:33:18;11.70;;;7.40;;
71622;SDS011;59473;53.214;5.728;2023-04-06T02:35:44;10.70;;;8.87;;
71622;SDS011;59473;53.214;5.728;2023-04-06T02:38:09;11.30;;;9.03;;
71622;SDS011;59473;53.214;5.728;2023-04-06T02:40:34;10.90;;;8.90;;
71622;SDS011;59473;53.214;5.728;2023-04-06T02:43:00;10.98;;;9.10;;
71622;SDS011;59473;53.214;5.728;2023-04-06T02:45:25;12.50;;;8.85;;
71622;SDS011;59473;53.214;5.728;2023-04-06T02:47:51;10.73;;;7.90;;
71622;SDS011;59473;53.214;5.728;2023-04-06T02:50:16;12.17;;;9.67;;
71622;SDS011;59473;53.214;5.728;2023-04-06T02:52:41;13.70;;;9.60;;
71622;SDS011;59473;53.214;5.728;2023-04-06T02:55:07;12.60;;;9.90;;
71622;SDS011;59473;53.214;5.728;2023-04-06T02:57:32;12.05;;;9.27;;
71622;SDS011;59473;53.214;5.728;2023-04-06T02:59:58;13.70;;;9.97;;
71622;SDS011;59473;53.214;5.728;2023-04-06T03:02:23;12.47;;;8.60;;
71622;SDS011;59473;53.214;5.728;2023-04-06T03:04:48;14.60;;;10.10;;
71622;SDS011;59473;53.214;5.728;2023-04-06T03:07:13;13.27;;;9.87;;
71622;SDS011;59473;53.214;5.728;2023-04-06T03:09:39;14.00;;;9.83;;
71622;SDS011;59473;53.214;5.728;2023-04-06T03:12:04;13.20;;;9.70;;
71622;SDS011;59473;53.214;5.728;2023-04-06T03:14:29;12.83;;;9.87;;
71622;SDS011;59473;53.214;5.728;2023-04-06T03:16:55;11.43;;;9.10;;
71622;SDS011;59473;53.214;5.728;2023-04-06T03:19:20;12.93;;;9.83;;
71622;SDS011;59473;53.214;5.728;2023-04-06T03:21:45;14.00;;;9.60;;
71622;SDS011;59473;53.214;5.728;2023-04-06T03:24:10;12.43;;;9.83;;
71622;SDS011;59473;53.214;5.728;2023-04-06T03:26:36;13.00;;;9.53;;
71622;SDS011;59473;53.214;5.728;2023-04-06T03:29:01;11.23;;;8.70;;
71622;SDS011;59473;53.214;5.728;2023-04-06T03:31:26;14.33;;;9.47;;
71622;SDS011;59473;53.214;5.728;2023-04-06T03:33:52;12.18;;;8.52;;
71622;SDS011;59473;53.214;5.728;2023-04-06T03:36:17;12.73;;;8.97;;
71622;SDS011;59473;53.214;5.728;2023-04-06T03:38:42;13.20;;;9.20;;
71622;SDS011;59473;53.214;5.728;2023-04-06T03:41:07;11.77;;;9.07;;
71622;SDS011;59473;53.214;5.728;2023-04-06T03:43:33;13.27;;;8.47;;
71622;SDS011;59473;53.214;5.728;2023-04-06T03:45:58;13.60;;;10.40;;
71622;SDS011;59473;53.214;5.728;2023-04-06T03:48:23;13.77;;;10.07;;
71622;SDS011;59473;53.214;5.728;2023-04-06T03:50:48;12.30;;;9.60;;
71622;SDS011;59473;53.214;5.728;2023-04-06T03:53:13;13.97;;;9.63;;
71622;SDS011;59473;53.214;5.728;2023-04-06T03:55:39;12.10;;;8.70;;
71622;SDS011;59473;53.214;5.728;2023-04-06T03:58:04;13.23;;;9.53;;
71622;SDS011;59473;53.214;5.728;2023-04-06T04:00:30;13.93;;;10.10;;
71622;SDS011;59473;53.214;5.728;2023-04-06T04:02:55;12.93;;;9.55;;
71622;SDS011;59473;53.214;5.728;2023-04-06T04:05:20;16.90;;;10.37;;
71622;SDS011;59473;53.214;5.728;2023-04-06T04:07:50;12.40;;;9.00;;
71622;SDS011;59473;53.214;5.728;2023-04-06T04:10:15;15.63;;;10.13;;
71622;SDS011;59473;53.214;5.728;2023-04-06T04:12:40;12.90;;;8.88;;
71622;SDS011;59473;53.214;5.728;2023-04-06T04:15:05;17.97;;;10.00;;
71622;SDS011;59473;53.214;5.728;2023-04-06T04:17:31;14.52;;;10.43;;
71622;SDS011;59473;53.214;5.728;2023-04-06T04:19:56;11.87;;;9.13;;
71622;SDS011;59473;53.214;5.728;2023-04-06T04:22:21;12.80;;;8.87;;
71622;SDS011;59473;53.214;5.728;2023-04-06T04:24:46;12.77;;;10.23;;
71622;SDS011;59473;53.214;5.728;2023-04-06T04:27:12;12.10;;;10.00;;
71622;SDS011;59473;53.214;5.728;2023-04-06T04:29:37;13.73;;;9.80;;
71622;SDS011;59473;53.214;5.728;2023-04-06T04:32:02;16.97;;;10.33;;
71622;SDS011;59473;53.214;5.728;2023-04-06T04:34:28;13.37;;;9.77;;
71622;SDS011;59473;53.214;5.728;2023-04-06T04:36:53;15.43;;;9.70;;
71622;SDS011;59473;53.214;5.728;2023-04-06T04:39:18;15.03;;;9.47;;
71622;SDS011;59473;53.214;5.728;2023-04-06T04:41:43;15.47;;;10.40;;
71622;SDS011;59473;53.214;5.728;2023-04-06T04:44:09;13.07;;;9.37;;
71622;SDS011;59473;53.214;5.728;2023-04-06T04:46:34;14.57;;;9.87;;
71622;SDS011;59473;53.214;5.728;2023-04-06T04:48:59;15.10;;;10.57;;
71622;SDS011;59473;53.214;5.728;2023-04-06T04:51:25;15.00;;;10.25;;
71622;SDS011;59473;53.214;5.728;2023-04-06T04:53:50;14.53;;;10.17;;
71622;SDS011;59473;53.214;5.728;2023-04-06T04:56:15;14.07;;;10.33;;
71622;SDS011;59473;53.214;5.728;2023-04-06T04:58:41;13.83;;;8.83;;
71622;SDS011;59473;53.214;5.728;2023-04-06T05:01:06;14.40;;;8.43;;
71622;SDS011;59473;53.214;5.728;2023-04-06T05:03:32;13.87;;;10.53;;
71622;SDS011;59473;53.214;5.728;2023-04-06T05:05:57;14.90;;;10.00;;
71622;SDS011;59473;53.214;5.728;2023-04-06T05:08:22;18.43;;;10.33;;
71622;SDS011;59473;53.214;5.728;2023-04-06T05:10:48;13.70;;;10.95;;
71622;SDS011;59473;53.214;5.728;2023-04-06T05:13:13;14.93;;;9.77;;
71622;SDS011;59473;53.214;5.728;2023-04-06T05:15:39;15.60;;;11.30;;
71622;SDS011;59473;53.214;5.728;2023-04-06T05:18:05;13.93;;;9.43;;
71622;SDS011;59473;53.214;5.728;2023-04-06T05:20:31;15.18;;;9.82;;
71622;SDS011;59473;53.214;5.728;2023-04-06T05:22:56;19.00;;;9.47;;
71622;SDS011;59473;53.214;5.728;2023-04-06T05:25:21;16.07;;;10.17;;
71622;SDS011;59473;53.214;5.728;2023-04-06T05:27:46;13.53;;;9.43;;
71622;SDS011;59473;53.214;5.728;2023-04-06T05:30:12;17.47;;;10.60;;
71622;SDS011;59473;53.214;5.728;2023-04-06T05:32:37;22.07;;;10.97;;
71622;SDS011;59473;53.214;5.728;2023-04-06T05:35:02;15.03;;;9.97;;
71622;SDS011;59473;53.214;5.728;2023-04-06T05:37:28;14.23;;;9.17;;
71622;SDS011;59473;53.214;5.728;2023-04-06T05:39:53;15.27;;;9.77;;
71622;SDS011;59473;53.214;5.728;2023-04-06T05:42:18;15.63;;;9.60;;
71622;SDS011;59473;53.214;5.728;2023-04-06T05:44:43;14.07;;;9.37;;
71622;SDS011;59473;53.214;5.728;2023-04-06T05:47:09;15.30;;;9.60;;
71622;SDS011;59473;53.214;5.728;2023-04-06T05:49:34;15.83;;;9.43;;
71622;SDS011;59473;53.214;5.728;2023-04-06T05:51:59;16.43;;;10.57;;
71622;SDS011;59473;53.214;5.728;2023-04-06T05:54:25;20.13;;;10.13;;
71622;SDS011;59473;53.214;5.728;2023-04-06T05:56:51;19.65;;;10.73;;
71622;SDS011;59473;53.214;5.728;2023-04-06T05:59:16;14.90;;;9.07;;
71622;SDS011;59473;53.214;5.728;2023-04-06T06:01:41;15.33;;;10.30;;
71622;SDS011;59473;53.214;5.728;2023-04-06T06:04:06;16.50;;;9.97;;
71622;SDS011;59473;53.214;5.728;2023-04-06T06:06:31;17.70;;;10.03;;
71622;SDS011;59473;53.214;5.728;2023-04-06T06:08:57;12.50;;;9.20;;
71622;SDS011;59473;53.214;5.728;2023-04-06T06:11:26;14.98;;;10.55;;
71622;SDS011;59473;53.214;5.728;2023-04-06T06:13:51;13.63;;;8.63;;
71622;SDS011;59473;53.214;5.728;2023-04-06T06:16:17;15.77;;;10.43;;
71622;SDS011;59473;53.214;5.728;2023-04-06T06:18:42;15.70;;;10.07;;
71622;SDS011;59473;53.214;5.728;2023-04-06T06:21:07;15.07;;;10.30;;
71622;SDS011;59473;53.214;5.728;2023-04-06T06:23:32;15.77;;;9.97;;
71622;SDS011;59473;53.214;5.728;2023-04-06T06:25:58;16.53;;;9.20;;
71622;SDS011;59473;53.214;5.728;2023-04-06T06:28:23;16.07;;;9.73;;
71622;SDS011;59473;53.214;5.728;2023-04-06T06:30:50;16.48;;;9.60;;
71622;SDS011;59473;53.214;5.728;2023-04-06T06:33:15;12.00;;;8.53;;
71622;SDS011;59473;53.214;5.728;2023-04-06T06:35:40;13.50;;;9.70;;
71622;SDS011;59473;53.214;5.728;2023-04-06T06:38:05;15.63;;;9.80;;
71622;SDS011;59473;53.214;5.728;2023-04-06T06:40:31;13.10;;;8.00;;
71622;SDS011;59473;53.214;5.728;2023-04-06T06:42:56;13.33;;;8.30;;
71622;SDS011;59473;53.214;5.728;2023-04-06T06:45:21;14.00;;;9.33;;
71622;SDS011;59473;53.214;5.728;2023-04-06T06:47:46;15.93;;;9.60;;
71622;SDS011;59473;53.214;5.728;2023-04-06T06:50:12;14.70;;;9.07;;
71622;SDS011;59473;53.214;5.728;2023-04-06T06:52:37;14.47;;;8.87;;
71622;SDS011;59473;53.214;5.728;2023-04-06T06:55:02;18.17;;;9.27;;
71622;SDS011;59473;53.214;5.728;2023-04-06T06:57:28;13.90;;;9.33;;
71622;SDS011;59473;53.214;5.728;2023-04-06T06:59:53;15.10;;;9.17;;
71622;SDS011;59473;53.214;5.728;2023-04-06T07:02:18;19.97;;;8.43;;
71622;SDS011;59473;53.214;5.728;2023-04-06T07:04:43;14.03;;;8.70;;
71622;SDS011;59473;53.214;5.728;2023-04-06T07:07:12;11.65;;;7.82;;
71622;SDS011;59473;53.214;5.728;2023-04-06T07:09:37;13.83;;;8.20;;
71622;SDS011;59473;53.214;5.728;2023-04-06T07:12:02;15.27;;;8.90;;
71622;SDS011;59473;53.214;5.728;2023-04-06T07:14:28;14.17;;;8.30;;
71622;SDS011;59473;53.214;5.728;2023-04-06T07:16:53;13.90;;;8.63;;
71622;SDS011;59473;53.214;5.728;2023-04-06T07:19:18;13.53;;;8.30;;
71622;SDS011;59473;53.214;5.728;2023-04-06T07:21:43;15.00;;;8.70;;
71622;SDS011;59473;53.214;5.728;2023-04-06T07:24:08;14.30;;;8.53;;
71622;SDS011;59473;53.214;5.728;2023-04-06T07:26:34;14.53;;;9.10;;
71622;SDS011;59473;53.214;5.728;2023-04-06T07:28:59;19.90;;;7.80;;
71622;SDS011;59473;53.214;5.728;2023-04-06T07:31:24;16.10;;;8.50;;
71622;SDS011;59473;53.214;5.728;2023-04-06T07:33:50;21.63;;;8.73;;
71622;SDS011;59473;53.214;5.728;2023-04-06T07:36:15;14.43;;;8.57;;
71622;SDS011;59473;53.214;5.728;2023-04-06T07:38:40;16.77;;;9.43;;
71622;SDS011;59473;53.214;5.728;2023-04-06T07:41:05;14.90;;;9.02;;
71622;SDS011;59473;53.214;5.728;2023-04-06T07:43:31;14.10;;;8.57;;
71622;SDS011;59473;53.214;5.728;2023-04-06T07:45:56;14.07;;;8.60;;
71622;SDS011;59473;53.214;5.728;2023-04-06T07:48:22;20.57;;;8.80;;
71622;SDS011;59473;53.214;5.728;2023-04-06T07:50:47;15.50;;;8.30;;
71622;SDS011;59473;53.214;5.728;2023-04-06T07:53:13;13.63;;;7.88;;
71622;SDS011;59473;53.214;5.728;2023-04-06T07:55:38;14.45;;;8.50;;
71622;SDS011;59473;53.214;5.728;2023-04-06T07:58:03;15.80;;;8.17;;
71622;SDS011;59473;53.214;5.728;2023-04-06T08:00:29;17.03;;;9.50;;
71622;SDS011;59473;53.214;5.728;2023-04-06T08:02:54;14.83;;;9.87;;
71622;SDS011;59473;53.214;5.728;2023-04-06T08:05:20;17.00;;;9.68;;
71622;SDS011;59473;53.214;5.728;2023-04-06T08:07:45;16.47;;;9.23;;
71622;SDS011;59473;53.214;5.728;2023-04-06T08:10:10;14.10;;;7.90;;
71622;SDS011;59473;53.214;5.728;2023-04-06T08:12:36;16.33;;;9.03;;
71622;SDS011;59473;53.214;5.728;2023-04-06T08:15:01;13.53;;;8.80;;
71622;SDS011;59473;53.214;5.728;2023-04-06T08:17:27;18.15;;;8.98;;
71622;SDS011;59473;53.214;5.728;2023-04-06T08:19:55;17.23;;;9.10;;
71622;SDS011;59473;53.214;5.728;2023-04-06T08:22:20;13.35;;;8.00;;
71622;SDS011;59473;53.214;5.728;2023-04-06T08:24:46;16.73;;;9.67;;
71622;SDS011;59473;53.214;5.728;2023-04-06T08:27:11;16.57;;;10.00;;
71622;SDS011;59473;53.214;5.728;2023-04-06T08:29:38;16.50;;;9.80;;
71622;SDS011;59473;53.214;5.728;2023-04-06T08:32:03;17.37;;;9.37;;
71622;SDS011;59473;53.214;5.728;2023-04-06T08:34:30;20.23;;;9.32;;
71622;SDS011;59473;53.214;5.728;2023-04-06T08:36:55;18.27;;;9.30;;
71622;SDS011;59473;53.214;5.728;2023-04-06T08:39:20;15.57;;;8.50;;
71622;SDS011;59473;53.214;5.728;2023-04-06T08:41:50;11.45;;;7.07;;
71622;SDS011;59473;53.214;5.728;2023-04-06T08:44:16;26.77;;;9.63;;
71622;SDS011;59473;53.214;5.728;2023-04-06T08:46:42;16.53;;;9.67;;
71622;SDS011;59473;53.214;5.728;2023-04-06T08:49:07;16.50;;;10.10;;
71622;SDS011;59473;53.214;5.728;2023-04-06T08:51:32;17.33;;;9.37;;
71622;SDS011;59473;53.214;5.728;2023-04-06T08:53:58;18.33;;;10.00;;
71622;SDS011;59473;53.214;5.728;2023-04-06T08:56:24;19.05;;;11.10;;
71622;SDS011;59473;53.214;5.728;2023-04-06T08:58:50;19.80;;;10.07;;
71622;SDS011;59473;53.214;5.728;2023-04-06T09:01:17;21.33;;;10.65;;
71622;SDS011;59473;53.214;5.728;2023-04-06T09:03:42;19.67;;;10.95;;
71622;SDS011;59473;53.214;5.728;2023-04-06T09:06:09;18.30;;;9.45;;
71622;SDS011;59473;53.214;5.728;2023-04-06T09:08:34;18.00;;;9.73;;
71622;SDS011;59473;53.214;5.728;2023-04-06T09:11:01;19.15;;;10.23;;
71622;SDS011;59473;53.214;5.728;2023-04-06T09:13:26;16.48;;;9.98;;
71622;SDS011;59473;53.214;5.728;2023-04-06T09:16:12;19.63;;;10.57;;
71622;SDS011;59473;53.214;5.728;2023-04-06T09:18:37;20.33;;;10.30;;
71622;SDS011;59473;53.214;5.728;2023-04-06T09:21:04;17.57;;;10.43;;
71622;SDS011;59473;53.214;5.728;2023-04-06T09:23:30;21.23;;;11.60;;
71622;SDS011;59473;53.214;5.728;2023-04-06T09:28:40;19.33;;;11.40;;
71622;SDS011;59473;53.214;5.728;2023-04-06T09:31:05;20.48;;;11.57;;
71622;SDS011;59473;53.214;5.728;2023-04-06T09:33:30;23.50;;;11.43;;
71622;SDS011;59473;53.214;5.728;2023-04-06T09:35:56;20.13;;;11.50;;
71622;SDS011;59473;53.214;5.728;2023-04-06T09:38:21;22.57;;;13.80;;
71622;SDS011;59473;53.214;5.728;2023-04-06T09:40:50;20.93;;;12.37;;
71622;SDS011;59473;53.214;5.728;2023-04-06T09:43:23;20.52;;;12.43;;
71622;SDS011;59473;53.214;5.728;2023-04-06T09:45:48;21.43;;;11.87;;
71622;SDS011;59473;53.214;5.728;2023-04-06T09:48:13;22.42;;;12.27;;
71622;SDS011;59473;53.214;5.728;2023-04-06T09:50:38;22.00;;;12.27;;
71622;SDS011;59473;53.214;5.728;2023-04-06T09:53:05;21.47;;;12.73;;
71622;SDS011;59473;53.214;5.728;2023-04-06T09:55:35;23.00;;;12.38;;
71622;SDS011;59473;53.214;5.728;2023-04-06T09:58:05;23.25;;;12.73;;
71622;SDS011;59473;53.214;5.728;2023-04-06T10:00:32;20.85;;;12.43;;
71622;SDS011;59473;53.214;5.728;2023-04-06T10:07:55;22.08;;;11.55;;
71622;SDS011;59473;53.214;5.728;2023-04-06T10:10:22;25.17;;;12.97;;
71622;SDS011;59473;53.214;5.728;2023-04-06T10:12:47;22.95;;;13.57;;
71622;SDS011;59473;53.214;5.728;2023-04-06T10:15:13;22.87;;;13.03;;
71622;SDS011;59473;53.214;5.728;2023-04-06T10:17:38;22.47;;;12.40;;
71622;SDS011;59473;53.214;5.728;2023-04-06T10:20:05;22.47;;;12.10;;
71622;SDS011;59473;53.214;5.728;2023-04-06T10:22:34;23.38;;;12.70;;
71622;SDS011;59473;53.214;5.728;2023-04-06T10:25:01;23.55;;;12.75;;
71622;SDS011;59473;53.214;5.728;2023-04-06T10:27:27;23.97;;;12.93;;
71622;SDS011;59473;53.214;5.728;2023-04-06T10:29:52;25.40;;;13.17;;
71622;SDS011;59473;53.214;5.728;2023-04-06T10:32:17;26.30;;;13.10;;
71622;SDS011;59473;53.214;5.728;2023-04-06T10:34:43;26.17;;;12.93;;
71622;SDS011;59473;53.214;5.728;2023-04-06T10:37:15;25.00;;;13.30;;
71622;SDS011;59473;53.214;5.728;2023-04-06T10:40:16;23.42;;;12.30;;
71622;SDS011;59473;53.214;5.728;2023-04-06T10:42:38;23.00;;;13.03;;
71622;SDS011;59473;53.214;5.728;2023-04-06T10:45:07;24.05;;;14.00;;
71622;SDS011;59473;53.214;5.728;2023-04-06T10:47:39;28.45;;;13.88;;
71622;SDS011;59473;53.214;5.728;2023-04-06T10:50:05;25.98;;;13.50;;
71622;SDS011;59473;53.214;5.728;2023-04-06T10:52:30;24.50;;;13.80;;
71622;SDS011;59473;53.214;5.728;2023-04-06T10:54:55;25.53;;;14.40;;
71622;SDS011;59473;53.214;5.728;2023-04-06T10:57:27;27.58;;;14.40;;
71622;SDS011;59473;53.214;5.728;2023-04-06T10:59:53;24.00;;;13.57;;
71622;SDS011;59473;53.214;5.728;2023-04-06T11:02:21;27.13;;;14.50;;
71622;SDS011;59473;53.214;5.728;2023-04-06T11:04:56;25.48;;;13.75;;
71622;SDS011;59473;53.214;5.728;2023-04-06T11:07:22;25.30;;;13.47;;
71622;SDS011;59473;53.214;5.728;2023-04-06T11:09:49;27.33;;;14.02;;
71622;SDS011;59473;53.214;5.728;2023-04-06T11:12:27;27.60;;;15.02;;
71622;SDS011;59473;53.214;5.728;2023-04-06T11:14:58;24.90;;;14.30;;
71622;SDS011;59473;53.214;5.728;2023-04-06T11:17:29;27.17;;;13.73;;
71622;SDS011;59473;53.214;5.728;2023-04-06T11:19:55;27.17;;;13.43;;
71622;SDS011;59473;53.214;5.728;2023-04-06T11:22:20;29.03;;;15.10;;
71622;SDS011;59473;53.214;5.728;2023-04-06T11:24:45;28.07;;;14.47;;
71622;SDS011;59473;53.214;5.728;2023-04-06T11:27:11;24.97;;;13.00;;
71622;SDS011;59473;53.214;5.728;2023-04-06T11:29:36;25.42;;;14.30;;
71622;SDS011;59473;53.214;5.728;2023-04-06T11:32:06;26.20;;;13.43;;
71622;SDS011;59473;53.214;5.728;2023-04-06T11:34:35;23.30;;;13.55;;
71622;SDS011;59473;53.214;5.728;2023-04-06T11:37:02;26.07;;;14.07;;
71622;SDS011;59473;53.214;5.728;2023-04-06T11:39:31;25.15;;;14.05;;
71622;SDS011;59473;53.214;5.728;2023-04-06T11:42:01;25.42;;;13.65;;
71622;SDS011;59473;53.214;5.728;2023-04-06T11:44:33;21.70;;;12.90;;
71622;SDS011;59473;53.214;5.728;2023-04-06T11:46:58;25.63;;;13.13;;
71622;SDS011;59473;53.214;5.728;2023-04-06T11:49:27;21.40;;;12.03;;
71622;SDS011;59473;53.214;5.728;2023-04-06T11:51:53;23.48;;;12.55;;
71622;SDS011;59473;53.214;5.728;2023-04-06T11:54:28;20.10;;;11.80;;
71622;SDS011;59473;53.214;5.728;2023-04-06T11:56:54;19.83;;;11.02;;
71622;SDS011;59473;53.214;5.728;2023-04-06T11:59:19;17.50;;;9.03;;
71622;SDS011;59473;53.214;5.728;2023-04-06T12:01:46;14.57;;;8.27;;
71622;SDS011;59473;53.214;5.728;2023-04-06T12:04:11;14.67;;;8.47;;
71622;SDS011;59473;53.214;5.728;2023-04-06T12:06:36;13.43;;;7.40;;
71622;SDS011;59473;53.214;5.728;2023-04-06T12:09:02;13.77;;;7.03;;
71622;SDS011;59473;53.214;5.728;2023-04-06T12:11:27;13.30;;;7.37;;
71622;SDS011;59473;53.214;5.728;2023-04-06T12:13:52;14.20;;;7.93;;
71622;SDS011;59473;53.214;5.728;2023-04-06T12:16:18;18.02;;;10.32;;
71622;SDS011;59473;53.214;5.728;2023-04-06T12:18:44;18.83;;;10.07;;
71622;SDS011;59473;53.214;5.728;2023-04-06T12:21:09;19.47;;;10.10;;
71622;SDS011;59473;53.214;5.728;2023-04-06T12:23:35;19.00;;;11.27;;
71622;SDS011;59473;53.214;5.728;2023-04-06T12:26:00;19.93;;;9.90;;
71622;SDS011;59473;53.214;5.728;2023-04-06T12:28:26;21.38;;;11.98;;
71622;SDS011;59473;53.214;5.728;2023-04-06T12:30:52;17.33;;;10.23;;
71622;SDS011;59473;53.214;5.728;2023-04-06T12:33:17;17.70;;;9.48;;
71622;SDS011;59473;53.214;5.728;2023-04-06T12:35:43;22.48;;;9.27;;
71622;SDS011;59473;53.214;5.728;2023-04-06T12:38:08;18.63;;;10.15;;
71622;SDS011;59473;53.214;5.728;2023-04-06T12:40:37;18.83;;;10.57;;
71622;SDS011;59473;53.214;5.728;2023-04-06T12:43:03;19.65;;;10.90;;
71622;SDS011;59473;53.214;5.728;2023-04-06T12:45:29;19.27;;;10.50;;
71622;SDS011;59473;53.214;5.728;2023-04-06T12:47:55;20.07;;;10.57;;
71622;SDS011;59473;53.214;5.728;2023-04-06T12:50:20;17.27;;;10.20;;
71622;SDS011;59473;53.214;5.728;2023-04-06T12:52:45;18.13;;;11.05;;
71622;SDS011;59473;53.214;5.728;2023-04-06T12:55:12;19.38;;;10.20;;
71622;SDS011;59473;53.214;5.728;2023-04-06T12:57:37;16.80;;;9.53;;
71622;SDS011;59473;53.214;5.728;2023-04-06T13:00:02;16.27;;;8.97;;
71622;SDS011;59473;53.214;5.728;2023-04-06T13:02:28;14.77;;;7.25;;
71622;SDS011;59473;53.214;5.728;2023-04-06T13:04:54;12.13;;;7.00;;
71622;SDS011;59473;53.214;5.728;2023-04-06T13:07:20;11.57;;;6.47;;
71622;SDS011;59473;53.214;5.728;2023-04-06T13:09:45;13.07;;;6.90;;
71622;SDS011;59473;53.214;5.728;2023-04-06T13:12:12;9.98;;;5.07;;
71622;SDS011;59473;53.214;5.728;2023-04-06T13:14:37;10.00;;;4.70;;
71622;SDS011;59473;53.214;5.728;2023-04-06T13:17:04;9.77;;;4.75;;
71622;SDS011;59473;53.214;5.728;2023-04-06T13:19:29;10.90;;;5.73;;
71622;SDS011;59473;53.214;5.728;2023-04-06T13:21:56;12.07;;;7.00;;
71622;SDS011;59473;53.214;5.728;2023-04-06T13:24:21;13.73;;;7.30;;
71622;SDS011;59473;53.214;5.728;2023-04-06T13:26:48;14.50;;;7.70;;
71622;SDS011;59473;53.214;5.728;2023-04-06T13:29:13;14.43;;;8.17;;
71622;SDS011;59473;53.214;5.728;2023-04-06T13:31:38;14.77;;;8.23;;
71622;SDS011;59473;53.214;5.728;2023-04-06T13:34:04;15.68;;;9.05;;
71622;SDS011;59473;53.214;5.728;2023-04-06T13:36:29;17.07;;;9.40;;
71622;SDS011;59473;53.214;5.728;2023-04-06T13:38:56;16.42;;;9.30;;
71622;SDS011;59473;53.214;5.728;2023-04-06T13:41:22;17.03;;;10.03;;
71622;SDS011;59473;53.214;5.728;2023-04-06T13:43:47;18.88;;;10.38;;
71622;SDS011;59473;53.214;5.728;2023-04-06T13:46:13;18.07;;;10.20;;
71622;SDS011;59473;53.214;5.728;2023-04-06T13:48:38;18.70;;;11.57;;
71622;SDS011;59473;53.214;5.728;2023-04-06T13:53:35;17.83;;;10.57;;
71622;SDS011;59473;53.214;5.728;2023-04-06T13:56:00;20.43;;;10.53;;
71622;SDS011;59473;53.214;5.728;2023-04-06T13:58:25;18.87;;;11.03;;
71622;SDS011;59473;53.214;5.728;2023-04-06T14:00:50;18.63;;;10.93;;
71622;SDS011;59473;53.214;5.728;2023-04-06T14:03:16;18.27;;;11.90;;
71622;SDS011;59473;53.214;5.728;2023-04-06T14:05:41;18.33;;;11.17;;
71622;SDS011;59473;53.214;5.728;2023-04-06T14:08:06;18.20;;;11.63;;
71622;SDS011;59473;53.214;5.728;2023-04-06T14:10:36;20.43;;;11.33;;
71622;SDS011;59473;53.214;5.728;2023-04-06T14:13:01;19.80;;;11.53;;
71622;SDS011;59473;53.214;5.728;2023-04-06T14:15:26;23.55;;;12.13;;
71622;SDS011;59473;53.214;5.728;2023-04-06T14:17:52;24.95;;;12.95;;
71622;SDS011;59473;53.214;5.728;2023-04-06T14:20:18;22.60;;;13.13;;
71622;SDS011;59473;53.214;5.728;2023-04-06T14:22:43;22.08;;;12.60;;
71622;SDS011;59473;53.214;5.728;2023-04-06T14:25:09;18.10;;;12.13;;
71622;SDS011;59473;53.214;5.728;2023-04-06T14:27:34;22.05;;;13.25;;
71622;SDS011;59473;53.214;5.728;2023-04-06T14:30:00;21.10;;;13.17;;